createdAt,value
2018-10-05T00:01:33.186Z,16.10
2018-10-05T00:04:11.733Z,14.68
2018-10-05T00:06:45.243Z,17.98
2018-10-05T00:09:20.946Z,15.23
2018-10-05T00:11:59.621Z,14.23
2018-10-05T00:14:33.142Z,18.73
2018-10-05T00:17:08.657Z,15.40
2018-10-05T00:19:57.357Z,17.07
2018-10-05T00:22:39.687Z,16.15
2018-10-05T00:25:10.872Z,16.07
2018-10-05T00:27:40.222Z,15.13
2018-10-05T00:30:14.042Z,15.68
2018-10-05T00:32:48.802Z,14.68
2018-10-05T00:35:21.366Z,16.93
2018-10-05T00:37:55.241Z,14.93
2018-10-05T00:40:24.434Z,15.38
2018-10-05T00:42:53.470Z,18.70
2018-10-05T00:45:23.520Z,16.45
2018-10-05T00:47:53.314Z,16.50
2018-10-05T00:50:37.744Z,15.03
2018-10-05T00:53:08.387Z,16.32
2018-10-05T00:55:39.541Z,15.28
2018-10-05T00:58:11.913Z,14.63
2018-10-05T01:00:48.390Z,16.45
2018-10-05T01:03:22.779Z,16.23
2018-10-05T01:05:52.938Z,16.07
2018-10-05T01:08:22.926Z,16.37
2018-10-05T01:10:54.519Z,16.80
2018-10-05T01:13:25.315Z,16.27
2018-10-05T01:15:57.258Z,16.73
2018-10-05T01:18:26.315Z,16.82
2018-10-05T01:20:57.775Z,18.50
2018-10-05T01:23:26.958Z,17.95
2018-10-05T01:25:58.545Z,18.87
2018-10-05T01:28:29.451Z,18.48
2018-10-05T01:31:03.452Z,16.42
2018-10-05T01:33:34.208Z,17.30
2018-10-05T01:36:08.391Z,17.62
2018-10-05T01:38:41.955Z,19.12
2018-10-05T01:41:14.498Z,18.60
2018-10-05T01:43:49.346Z,18.32
2018-10-05T01:46:23.845Z,16.77
2018-10-05T01:48:55.067Z,18.35
2018-10-05T01:51:34.692Z,17.95
2018-10-05T01:54:09.061Z,17.67
2018-10-05T01:56:47.576Z,21.93
2018-10-05T01:59:20.510Z,15.83
2018-10-05T02:01:50.569Z,17.37
2018-10-05T02:04:24.345Z,17.50
2018-10-05T02:07:08.223Z,16.30
2018-10-05T02:09:47.522Z,16.93
2018-10-05T02:12:22.101Z,16.40
2018-10-05T02:14:55.304Z,17.02
2018-10-05T02:17:30.801Z,17.95
2018-10-05T02:20:04.619Z,17.35
2018-10-05T02:22:44.991Z,18.30
2018-10-05T02:25:19.741Z,17.55
2018-10-05T02:27:52.595Z,16.00
2018-10-05T02:30:24.922Z,16.62
2018-10-05T02:33:03.378Z,16.70
2018-10-05T02:35:41.100Z,17.90
2018-10-05T02:38:15.035Z,18.73
2018-10-05T02:40:46.087Z,17.70
2018-10-05T02:43:27.002Z,17.95
2018-10-05T02:50:36.561Z,19.95
2018-10-05T02:56:24.558Z,21.80
2018-10-05T02:59:06.986Z,21.33
2018-10-05T03:10:43.396Z,18.90
2018-10-05T03:13:37.937Z,20.23
2018-10-05T03:16:27.637Z,20.12
2018-10-05T03:22:17.171Z,19.62
2018-10-05T03:25:06.159Z,21.42
2018-10-05T03:31:02.350Z,19.37
2018-10-05T03:36:57.424Z,20.27
2018-10-05T03:39:42.097Z,20.15
2018-10-05T03:45:43.420Z,18.25
2018-10-05T03:48:48.849Z,18.55
2018-10-05T03:54:47.635Z,18.70
2018-10-05T03:57:29.718Z,18.60
2018-10-05T04:00:24.080Z,17.45
2018-10-05T04:03:16.655Z,17.52
2018-10-05T04:06:11.560Z,16.15
2018-10-05T04:08:53.461Z,18.17
2018-10-05T04:11:40.549Z,16.80
2018-10-05T04:17:41.405Z,15.58
2018-10-05T04:20:21.532Z,16.12
2018-10-05T04:23:24.224Z,15.15
2018-10-05T04:31:59.559Z,15.78
2018-10-05T04:38:11.960Z,15.85
2018-10-05T04:43:31.891Z,14.25
2018-10-05T04:46:32.221Z,16.12
2018-10-05T04:52:41.617Z,14.90
2018-10-05T04:55:17.893Z,16.57
2018-10-05T04:57:48.941Z,15.80
2018-10-05T05:00:21.267Z,16.85
2018-10-05T05:02:55.136Z,15.68
2018-10-05T05:05:25.996Z,15.35
2018-10-05T05:08:01.120Z,16.40
2018-10-05T05:10:40.098Z,15.00
2018-10-05T05:13:58.058Z,16.37
2018-10-05T05:16:37.362Z,18.65
2018-10-05T05:19:14.357Z,15.98
2018-10-05T05:21:43.517Z,15.88
2018-10-05T05:24:12.286Z,15.70
2018-10-05T05:26:45.165Z,14.18
2018-10-05T05:29:16.738Z,17.60
2018-10-05T05:31:47.364Z,18.55
2018-10-05T05:34:16.725Z,14.70
2018-10-05T05:36:47.270Z,16.77
2018-10-05T05:39:19.854Z,14.65
2018-10-05T05:41:53.121Z,13.70
2018-10-05T05:44:21.798Z,13.45
2018-10-05T05:46:51.647Z,13.65
2018-10-05T05:49:20.855Z,14.60
2018-10-05T05:51:49.668Z,15.48
2018-10-05T05:54:18.953Z,21.52
2018-10-05T05:56:50.608Z,15.28
2018-10-05T05:59:23.592Z,16.45
2018-10-05T06:01:54.176Z,15.55
2018-10-05T06:04:32.900Z,14.10
2018-10-05T06:07:12.859Z,19.42
2018-10-05T06:09:58.967Z,15.40
2018-10-05T06:12:36.938Z,13.88
2018-10-05T06:15:23.278Z,15.78
2018-10-05T06:20:49.805Z,15.32
2018-10-05T06:23:52.875Z,14.18
2018-10-05T06:26:34.363Z,16.45
2018-10-05T06:31:59.158Z,15.32
2018-10-05T06:34:34.765Z,14.13
2018-10-05T06:37:10.442Z,14.90
2018-10-05T06:39:40.854Z,13.95
2018-10-05T06:42:20.233Z,12.88
2018-10-05T06:44:57.578Z,14.00
2018-10-05T06:50:37.345Z,15.32
2018-10-05T06:53:17.968Z,14.85
2018-10-05T06:58:43.799Z,16.07
2018-10-05T07:01:17.097Z,14.70
2018-10-05T07:03:47.387Z,13.98
2018-10-05T07:06:18.518Z,14.23
2018-10-05T07:09:15.318Z,17.25
2018-10-05T07:11:57.091Z,14.40
2018-10-05T07:14:33.016Z,13.30
2018-10-05T07:17:07.959Z,15.85
2018-10-05T07:19:41.556Z,15.10
2018-10-05T07:25:12.162Z,15.20
2018-10-05T07:34:02.772Z,13.13
2018-10-05T07:37:03.094Z,12.73
2018-10-05T07:39:55.637Z,15.60
2018-10-05T08:10:17.134Z,15.38
2018-10-05T08:15:14.151Z,15.18
2018-10-05T09:14:28.211Z,15.15
2018-10-05T09:17:12.867Z,16.27
2018-10-05T09:20:04.946Z,13.58
2018-10-05T09:22:36.517Z,14.28
2018-10-05T09:25:46.849Z,12.35
2018-10-05T09:28:19.104Z,14.10
2018-10-05T09:31:01.992Z,11.63
2018-10-05T09:33:44.160Z,11.18
2018-10-05T09:36:18.065Z,12.43
2018-10-05T09:38:56.857Z,12.13
2018-10-05T09:41:52.519Z,14.15
2018-10-05T09:44:33.445Z,13.25
2018-10-05T09:47:15.752Z,13.88
2018-10-05T09:53:02.355Z,11.22
2018-10-05T09:56:03.319Z,12.30
2018-10-05T09:58:32.650Z,12.40
2018-10-05T10:01:07.714Z,14.18
2018-10-05T10:03:37.476Z,12.07
2018-10-05T10:13:37.736Z,12.75
2018-10-05T10:19:34.100Z,13.32
2018-10-05T10:22:03.155Z,11.95
2018-10-05T10:24:32.039Z,12.93
2018-10-05T10:40:05.553Z,11.15
2018-10-05T10:46:21.726Z,9.45
2018-10-05T10:49:08.385Z,12.20
2018-10-05T10:51:45.207Z,10.65
2018-10-05T10:57:42.290Z,12.37
2018-10-05T11:03:30.471Z,12.53
2018-10-05T11:06:16.785Z,10.03
2018-10-05T11:15:23.612Z,11.95
2018-10-05T11:18:21.692Z,14.20
2018-10-05T11:20:51.381Z,11.15
2018-10-05T11:23:23.402Z,12.33
2018-10-05T11:25:53.052Z,11.78
2018-10-05T11:28:24.200Z,9.95
2018-10-05T11:30:54.340Z,9.83
2018-10-05T11:33:24.764Z,9.63
2018-10-05T11:35:54.348Z,11.60
2018-10-05T11:38:24.259Z,10.10
2018-10-05T11:40:56.085Z,10.08
2018-10-05T11:43:46.759Z,11.50
2018-10-05T11:46:36.868Z,11.60
2018-10-05T11:49:10.654Z,10.20
2018-10-05T11:51:48.355Z,10.70
2018-10-05T11:54:25.978Z,9.68
2018-10-05T11:57:08.974Z,9.63
2018-10-05T11:59:46.243Z,10.60
2018-10-05T12:02:26.496Z,9.78
2018-10-05T12:05:23.849Z,9.90
2018-10-05T12:08:05.599Z,10.58
2018-10-05T12:10:38.617Z,9.73
2018-10-05T12:13:31.735Z,9.85
2018-10-05T12:16:16.665Z,10.15
2018-10-05T12:18:52.754Z,9.40
2018-10-05T14:09:15.233Z,7.53
2018-10-05T14:57:14.702Z,5.85
2018-10-05T15:07:15.358Z,5.30
2018-10-05T15:13:28.159Z,5.90
2018-10-05T20:37:32.675Z,12.78
2018-10-05T20:45:31.585Z,17.30
2018-10-05T20:51:10.737Z,18.10
2018-10-05T20:53:51.148Z,15.05
2018-10-05T20:56:33.464Z,15.75
2018-10-05T20:59:15.695Z,15.65
2018-10-05T21:01:54.576Z,18.37
2018-10-05T21:04:27.423Z,16.95
2018-10-05T21:07:09.903Z,15.20
2018-10-05T21:09:42.230Z,13.72
2018-10-05T21:12:17.123Z,13.08
2018-10-05T21:14:59.839Z,14.10
2018-10-05T21:17:35.425Z,12.37
2018-10-05T21:20:18.116Z,13.83
2018-10-05T21:23:25.857Z,14.58
2018-10-05T21:25:59.286Z,15.32
2018-10-05T21:28:50.234Z,15.95
2018-10-05T21:31:32.397Z,16.93
2018-10-05T21:39:51.335Z,20.20
2018-10-05T21:42:41.680Z,19.50
2018-10-05T21:45:39.659Z,14.50
2018-10-05T21:48:31.349Z,13.13
2018-10-05T21:51:09.102Z,12.28
2018-10-05T22:00:19.751Z,12.78
2018-10-05T22:03:20.272Z,11.20
2018-10-05T22:05:49.833Z,12.68
2018-10-05T22:08:19.669Z,14.47
2018-10-05T22:10:51.958Z,15.30
2018-10-05T22:13:21.408Z,13.43
2018-10-05T22:15:50.692Z,12.93
2018-10-05T22:18:20.508Z,12.05
2018-10-05T22:20:54.032Z,10.78
2018-10-05T22:23:25.775Z,12.20
2018-10-05T22:25:56.185Z,13.50
2018-10-05T22:28:27.076Z,13.10
2018-10-05T22:31:26.828Z,13.68
2018-10-05T22:33:59.066Z,11.83
2018-10-05T22:36:31.596Z,11.15
2018-10-05T22:39:03.483Z,12.00
2018-10-05T22:41:34.591Z,12.95
2018-10-05T22:44:12.714Z,12.33
2018-10-05T22:46:42.427Z,13.03
2018-10-05T22:49:11.785Z,16.00
2018-10-05T22:51:45.799Z,16.05
2018-10-05T22:54:17.298Z,16.50
2018-10-05T22:56:57.092Z,13.40
2018-10-05T22:59:33.091Z,13.20
2018-10-05T23:02:11.444Z,14.45
2018-10-05T23:04:49.683Z,10.90
2018-10-05T23:07:20.381Z,11.43
2018-10-05T23:09:58.136Z,11.95
2018-10-05T23:12:37.758Z,10.70
2018-10-05T23:15:10.079Z,10.03
2018-10-05T23:17:43.035Z,13.05
2018-10-05T23:20:17.067Z,13.40
2018-10-05T23:22:59.755Z,15.68
2018-10-05T23:25:34.356Z,12.82
2018-10-05T23:28:17.638Z,12.05
2018-10-05T23:30:49.220Z,12.25
2018-10-05T23:33:26.277Z,15.10
2018-10-05T23:36:00.060Z,15.65
2018-10-05T23:38:38.574Z,12.18
2018-10-05T23:41:14.392Z,11.85
2018-10-05T23:43:52.859Z,13.18
2018-10-05T23:46:30.937Z,18.92
2018-10-05T23:49:12.640Z,17.25
2018-10-05T23:51:47.684Z,12.78
2018-10-05T23:54:17.060Z,11.48
2018-10-05T23:56:49.210Z,17.00
2018-10-05T23:59:23.270Z,21.10
